sensor_id;sensor_type;location;lat;lon;timestamp;pressure;altitude;pressure_sealevel;temperature;humidity
31595;BME280;18200;48.726;8.892;2023-03-04T00:00:26;97248.50;;;11.86;36.60
31595;BME280;18200;48.726;8.892;2023-03-04T00:04:26;97254.38;;;12.07;36.34
31595;BME280;18200;48.726;8.892;2023-03-04T00:08:26;97252.97;;;12.13;36.48
31595;BME280;18200;48.726;8.892;2023-03-04T00:12:27;97251.69;;;12.07;36.01
31595;BME280;18200;48.726;8.892;2023-03-04T00:16:27;97253.66;;;12.10;35.89
31595;BME280;18200;48.726;8.892;2023-03-04T00:20:28;97248.72;;;11.62;36.41
31595;BME280;18200;48.726;8.892;2023-03-04T00:24:28;97248.50;;;11.86;36.34
31595;BME280;18200;48.726;8.892;2023-03-04T00:28:29;97253.19;;;11.89;36.52
31595;BME280;18200;48.726;8.892;2023-03-04T00:32:29;97247.13;;;11.61;36.95
31595;BME280;18200;48.726;8.892;2023-03-04T00:36:30;97254.44;;;11.45;36.47
31595;BME280;18200;48.726;8.892;2023-03-04T00:40:30;97254.03;;;11.43;36.50
31595;BME280;18200;48.726;8.892;2023-03-04T00:44:31;97257.66;;;11.50;36.84
31595;BME280;18200;48.726;8.892;2023-03-04T00:48:31;97253.91;;;11.55;37.20
31595;BME280;18200;48.726;8.892;2023-03-04T00:52:32;97248.72;;;11.31;37.42
31595;BME280;18200;48.726;8.892;2023-03-04T00:56:32;97244.91;;;11.32;37.34
31595;BME280;18200;48.726;8.892;2023-03-04T01:00:33;97242.72;;;11.53;37.14
31595;BME280;18200;48.726;8.892;2023-03-04T01:04:33;97247.50;;;11.44;36.55
31595;BME280;18200;48.726;8.892;2023-03-04T01:08:33;97246.38;;;11.29;36.92
31595;BME280;18200;48.726;8.892;2023-03-04T01:12:34;97239.88;;;11.15;36.84
31595;BME280;18200;48.726;8.892;2023-03-04T01:16:34;97239.72;;;11.39;36.65
31595;BME280;18200;48.726;8.892;2023-03-04T01:20:34;97240.06;;;10.35;37.64
31595;BME280;18200;48.726;8.892;2023-03-04T01:24:36;97249.03;;;10.27;39.17
31595;BME280;18200;48.726;8.892;2023-03-04T01:28:36;97242.84;;;10.66;38.08
31595;BME280;18200;48.726;8.892;2023-03-04T01:32:40;97243.78;;;10.58;37.46
31595;BME280;18200;48.726;8.892;2023-03-04T01:36:40;97233.78;;;10.86;37.94
31595;BME280;18200;48.726;8.892;2023-03-04T01:40:40;97240.94;;;10.67;37.26
31595;BME280;18200;48.726;8.892;2023-03-04T01:44:41;97231.53;;;10.88;37.39
31595;BME280;18200;48.726;8.892;2023-03-04T01:48:43;97232.50;;;10.96;36.77
31595;BME280;18200;48.726;8.892;2023-03-04T01:52:43;97232.38;;;10.92;36.33
31595;BME280;18200;48.726;8.892;2023-03-04T01:56:45;97241.72;;;10.67;36.65
31595;BME280;18200;48.726;8.892;2023-03-04T02:00:46;97232.72;;;10.75;36.11
31595;BME280;18200;48.726;8.892;2023-03-04T02:04:46;97238.34;;;10.70;36.73
31595;BME280;18200;48.726;8.892;2023-03-04T02:08:47;97236.56;;;10.47;37.06
31595;BME280;18200;48.726;8.892;2023-03-04T02:12:47;97223.94;;;10.63;36.97
31595;BME280;18200;48.726;8.892;2023-03-04T02:16:48;97219.75;;;10.77;37.21
31595;BME280;18200;48.726;8.892;2023-03-04T02:20:59;97217.06;;;10.77;36.81
31595;BME280;18200;48.726;8.892;2023-03-04T02:25:10;97222.16;;;10.82;36.67
31595;BME280;18200;48.726;8.892;2023-03-04T02:29:14;97217.97;;;10.69;36.87
31595;BME280;18200;48.726;8.892;2023-03-04T02:33:16;97217.59;;;10.55;36.65
31595;BME280;18200;48.726;8.892;2023-03-04T02:37:18;97212.16;;;10.52;36.78
31595;BME280;18200;48.726;8.892;2023-03-04T02:41:23;97203.94;;;10.60;36.21
31595;BME280;18200;48.726;8.892;2023-03-04T02:45:43;97214.53;;;10.41;36.03
31595;BME280;18200;48.726;8.892;2023-03-04T02:49:45;97214.06;;;9.60;38.30
31595;BME280;18200;48.726;8.892;2023-03-04T02:53:45;97221.16;;;9.92;37.55
31595;BME280;18200;48.726;8.892;2023-03-04T02:57:46;97223.03;;;10.16;38.09
31595;BME280;18200;48.726;8.892;2023-03-04T03:01:47;97217.78;;;9.95;37.56
31595;BME280;18200;48.726;8.892;2023-03-04T03:05:48;97221.81;;;9.89;38.04
31595;BME280;18200;48.726;8.892;2023-03-04T03:09:49;97218.69;;;10.11;37.38
31595;BME280;18200;48.726;8.892;2023-03-04T03:13:51;97219.00;;;9.97;36.94
31595;BME280;18200;48.726;8.892;2023-03-04T03:17:52;97218.03;;;9.90;36.71
31595;BME280;18200;48.726;8.892;2023-03-04T03:21:52;97215.34;;;9.78;36.72
31595;BME280;18200;48.726;8.892;2023-03-04T03:25:53;97211.31;;;9.96;38.04
31595;BME280;18200;48.726;8.892;2023-03-04T03:29:53;97220.00;;;10.05;37.14
31595;BME280;18200;48.726;8.892;2023-03-04T03:33:53;97213.31;;;10.11;37.11
31595;BME280;18200;48.726;8.892;2023-03-04T03:37:54;97216.19;;;10.06;37.18
31595;BME280;18200;48.726;8.892;2023-03-04T03:41:54;97224.22;;;10.30;36.43
31595;BME280;18200;48.726;8.892;2023-03-04T03:45:55;97225.59;;;10.00;36.76
31595;BME280;18200;48.726;8.892;2023-03-04T03:49:55;97215.25;;;9.74;36.49
31595;BME280;18200;48.726;8.892;2023-03-04T03:53:55;97214.03;;;8.75;39.23
31595;BME280;18200;48.726;8.892;2023-03-04T03:57:57;97212.28;;;9.15;39.52
31595;BME280;18200;48.726;8.892;2023-03-04T04:01:57;97214.97;;;9.39;38.33
31595;BME280;18200;48.726;8.892;2023-03-04T04:05:58;97212.47;;;9.59;37.56
31595;BME280;18200;48.726;8.892;2023-03-04T04:09:58;97209.81;;;9.47;37.53
31595;BME280;18200;48.726;8.892;2023-03-04T04:13:58;97210.81;;;9.66;37.74
31595;BME280;18200;48.726;8.892;2023-03-04T04:17:59;97215.09;;;9.43;36.93
31595;BME280;18200;48.726;8.892;2023-03-04T04:21:59;97218.75;;;9.51;37.31
31595;BME280;18200;48.726;8.892;2023-03-04T04:26:00;97211.59;;;9.55;36.80
31595;BME280;18200;48.726;8.892;2023-03-04T04:30:00;97216.19;;;9.06;36.68
31595;BME280;18200;48.726;8.892;2023-03-04T04:34:01;97213.13;;;8.83;37.44
31595;BME280;18200;48.726;8.892;2023-03-04T04:38:01;97211.06;;;9.13;38.28
31595;BME280;18200;48.726;8.892;2023-03-04T04:42:02;97202.03;;;9.17;38.01
31595;BME280;18200;48.726;8.892;2023-03-04T04:46:02;97216.31;;;9.21;37.59
31595;BME280;18200;48.726;8.892;2023-03-04T04:50:03;97220.34;;;9.15;37.93
31595;BME280;18200;48.726;8.892;2023-03-04T04:54:04;97223.66;;;9.00;37.62
31595;BME280;18200;48.726;8.892;2023-03-04T04:58:06;97219.84;;;8.77;38.20
31595;BME280;18200;48.726;8.892;2023-03-04T05:02:06;97224.75;;;8.75;38.27
31595;BME280;18200;48.726;8.892;2023-03-04T05:06:09;97216.53;;;9.04;37.80
31595;BME280;18200;48.726;8.892;2023-03-04T05:10:10;97220.31;;;9.03;37.85
31595;BME280;18200;48.726;8.892;2023-03-04T05:14:10;97218.00;;;8.69;37.15
31595;BME280;18200;48.726;8.892;2023-03-04T05:18:11;97221.66;;;8.65;38.37
31595;BME280;18200;48.726;8.892;2023-03-04T05:22:11;97221.81;;;8.68;38.63
31595;BME280;18200;48.726;8.892;2023-03-04T05:26:14;97220.53;;;8.98;38.25
31595;BME280;18200;48.726;8.892;2023-03-04T05:30:15;97225.00;;;8.94;37.41
31595;BME280;18200;48.726;8.892;2023-03-04T05:34:16;97236.63;;;8.98;37.32
31595;BME280;18200;48.726;8.892;2023-03-04T05:38:18;97227.78;;;8.53;37.58
31595;BME280;18200;48.726;8.892;2023-03-04T05:42:18;97231.97;;;8.75;37.72
31595;BME280;18200;48.726;8.892;2023-03-04T05:46:19;97230.28;;;8.37;37.46
31595;BME280;18200;48.726;8.892;2023-03-04T05:50:24;97231.13;;;8.50;38.22
31595;BME280;18200;48.726;8.892;2023-03-04T05:54:26;97232.28;;;8.61;37.27
31595;BME280;18200;48.726;8.892;2023-03-04T05:58:26;97238.53;;;8.65;37.29
31595;BME280;18200;48.726;8.892;2023-03-04T06:02:27;97238.75;;;8.60;36.64
31595;BME280;18200;48.726;8.892;2023-03-04T06:06:27;97240.97;;;8.58;37.10
31595;BME280;18200;48.726;8.892;2023-03-04T06:10:27;97243.66;;;8.58;38.05
31595;BME280;18200;48.726;8.892;2023-03-04T06:14:28;97249.06;;;8.82;37.14
31595;BME280;18200;48.726;8.892;2023-03-04T06:18:28;97251.13;;;8.97;36.67
31595;BME280;18200;48.726;8.892;2023-03-04T06:22:28;97257.88;;;8.50;36.29
31595;BME280;18200;48.726;8.892;2023-03-04T06:26:29;97262.19;;;8.63;37.01
31595;BME280;18200;48.726;8.892;2023-03-04T06:30:29;97263.94;;;8.59;37.27
31595;BME280;18200;48.726;8.892;2023-03-04T06:34:30;97275.69;;;8.34;37.04
31595;BME280;18200;48.726;8.892;2023-03-04T06:38:30;97272.41;;;8.49;36.57
31595;BME280;18200;48.726;8.892;2023-03-04T06:42:30;97276.63;;;8.50;37.56
31595;BME280;18200;48.726;8.892;2023-03-04T06:46:34;97281.38;;;8.65;36.91
31595;BME280;18200;48.726;8.892;2023-03-04T06:50:35;97283.38;;;8.35;37.69
31595;BME280;18200;48.726;8.892;2023-03-04T06:54:35;97280.22;;;8.54;38.03
31595;BME280;18200;48.726;8.892;2023-03-04T06:58:36;97286.44;;;8.46;38.06
31595;BME280;18200;48.726;8.892;2023-03-04T07:02:36;97287.31;;;8.71;37.25
31595;BME280;18200;48.726;8.892;2023-03-04T07:10:53;97292.09;;;9.10;36.90
31595;BME280;18200;48.726;8.892;2023-03-04T07:14:54;97293.16;;;9.17;37.41
31595;BME280;18200;48.726;8.892;2023-03-04T07:18:56;97306.66;;;8.88;37.76
31595;BME280;18200;48.726;8.892;2023-03-04T07:22:56;97305.25;;;8.58;39.20
31595;BME280;18200;48.726;8.892;2023-03-04T07:27:00;97317.06;;;8.36;40.76
31595;BME280;18200;48.726;8.892;2023-03-04T07:31:22;97309.41;;;9.00;40.15
31595;BME280;18200;48.726;8.892;2023-03-04T07:35:23;97323.72;;;8.51;42.23
31595;BME280;18200;48.726;8.892;2023-03-04T07:39:24;97320.97;;;8.59;42.56
31595;BME280;18200;48.726;8.892;2023-03-04T07:43:25;97323.22;;;8.08;44.58
31595;BME280;18200;48.726;8.892;2023-03-04T07:47:26;97327.00;;;8.89;43.46
31595;BME280;18200;48.726;8.892;2023-03-04T07:51:27;97333.72;;;8.95;44.70
31595;BME280;18200;48.726;8.892;2023-03-04T07:55:28;97330.25;;;9.27;44.52
31595;BME280;18200;48.726;8.892;2023-03-04T07:59:30;97323.78;;;9.65;43.71
31595;BME280;18200;48.726;8.892;2023-03-04T08:03:31;97330.06;;;10.17;43.14
31595;BME280;18200;48.726;8.892;2023-03-04T08:11:55;97336.69;;;10.87;41.77
31595;BME280;18200;48.726;8.892;2023-03-04T08:15:56;97332.88;;;10.60;41.70
31595;BME280;18200;48.726;8.892;2023-03-04T08:19:57;97330.75;;;9.90;43.37
31595;BME280;18200;48.726;8.892;2023-03-04T08:28:32;97343.78;;;9.43;46.18
31595;BME280;18200;48.726;8.892;2023-03-04T08:32:32;97352.56;;;8.87;47.58
31595;BME280;18200;48.726;8.892;2023-03-04T08:36:33;97358.72;;;8.67;48.43
31595;BME280;18200;48.726;8.892;2023-03-04T08:40:34;97351.19;;;10.31;44.19
31595;BME280;18200;48.726;8.892;2023-03-04T08:44:35;97355.00;;;9.81;45.21
31595;BME280;18200;48.726;8.892;2023-03-04T08:48:39;97360.91;;;9.75;45.46
31595;BME280;18200;48.726;8.892;2023-03-04T08:52:39;97352.13;;;10.62;43.86
31595;BME280;18200;48.726;8.892;2023-03-04T08:56:40;97353.53;;;9.60;46.66
31595;BME280;18200;48.726;8.892;2023-03-04T09:00:43;97351.09;;;10.15;45.30
31595;BME280;18200;48.726;8.892;2023-03-04T09:04:43;97356.28;;;10.87;43.54
31595;BME280;18200;48.726;8.892;2023-03-04T09:08:44;97358.94;;;11.43;41.51
31595;BME280;18200;48.726;8.892;2023-03-04T09:12:45;97364.72;;;11.29;42.54
31595;BME280;18200;48.726;8.892;2023-03-04T09:16:45;97360.94;;;11.03;43.21
31595;BME280;18200;48.726;8.892;2023-03-04T09:20:46;97363.69;;;11.34;42.11
31595;BME280;18200;48.726;8.892;2023-03-04T09:24:47;97360.81;;;11.86;41.89
31595;BME280;18200;48.726;8.892;2023-03-04T09:28:52;97364.50;;;11.07;42.21
31595;BME280;18200;48.726;8.892;2023-03-04T09:32:52;97354.00;;;11.45;41.62
31595;BME280;18200;48.726;8.892;2023-03-04T09:36:53;97353.31;;;10.77;43.00
31595;BME280;18200;48.726;8.892;2023-03-04T09:40:53;97357.31;;;10.83;42.85
31595;BME280;18200;48.726;8.892;2023-03-04T09:44:54;97356.94;;;10.97;42.47
31595;BME280;18200;48.726;8.892;2023-03-04T09:48:55;97356.59;;;11.41;40.75
31595;BME280;18200;48.726;8.892;2023-03-04T09:53:10;97347.31;;;11.39;40.87
31595;BME280;18200;48.726;8.892;2023-03-04T09:57:35;97357.97;;;10.52;42.80
31595;BME280;18200;48.726;8.892;2023-03-04T10:01:50;97349.19;;;11.23;41.25
31595;BME280;18200;48.726;8.892;2023-03-04T10:06:06;97349.63;;;11.25;40.60
31595;BME280;18200;48.726;8.892;2023-03-04T10:10:15;97356.44;;;11.65;39.83
31595;BME280;18200;48.726;8.892;2023-03-04T10:18:24;97355.25;;;10.64;41.80
31595;BME280;18200;48.726;8.892;2023-03-04T10:22:32;97350.34;;;11.10;40.05
31595;BME280;18200;48.726;8.892;2023-03-04T10:26:34;97343.84;;;11.54;40.32
31595;BME280;18200;48.726;8.892;2023-03-04T10:31:16;97344.63;;;11.39;39.87
31595;BME280;18200;48.726;8.892;2023-03-04T10:35:14;97351.50;;;10.41;42.45
31595;BME280;18200;48.726;8.892;2023-03-04T10:39:23;97345.44;;;10.44;42.09
31595;BME280;18200;48.726;8.892;2023-03-04T10:43:24;97341.84;;;11.08;40.46
31595;BME280;18200;48.726;8.892;2023-03-04T10:47:28;97338.28;;;11.47;40.14
31595;BME280;18200;48.726;8.892;2023-03-04T10:51:29;97331.81;;;12.29;38.66
31595;BME280;18200;48.726;8.892;2023-03-04T10:55:42;97334.13;;;10.51;41.55
31595;BME280;18200;48.726;8.892;2023-03-04T10:59:48;97316.84;;;11.66;40.16
31595;BME280;18200;48.726;8.892;2023-03-04T11:03:52;97326.81;;;11.65;39.87
31595;BME280;18200;48.726;8.892;2023-03-04T11:07:58;97319.78;;;12.42;38.00
31595;BME280;18200;48.726;8.892;2023-03-04T11:12:00;97325.50;;;12.06;38.71
31595;BME280;18200;48.726;8.892;2023-03-04T11:16:04;97316.25;;;12.58;37.56
31595;BME280;18200;48.726;8.892;2023-03-04T11:20:24;97316.56;;;11.40;39.39
31595;BME280;18200;48.726;8.892;2023-03-04T11:24:27;97314.53;;;11.06;39.96
31595;BME280;18200;48.726;8.892;2023-03-04T11:37:43;97297.66;;;12.53;37.31
31595;BME280;18200;48.726;8.892;2023-03-04T11:41:53;97307.56;;;10.89;40.08
31595;BME280;18200;48.726;8.892;2023-03-04T11:50:44;97295.94;;;12.44;37.44
31595;BME280;18200;48.726;8.892;2023-03-04T11:59:16;97286.53;;;11.07;39.64
31595;BME280;18200;48.726;8.892;2023-03-04T12:08:13;97267.94;;;11.95;38.67
31595;BME280;18200;48.726;8.892;2023-03-04T12:12:45;97263.53;;;11.87;38.24
31595;BME280;18200;48.726;8.892;2023-03-04T12:17:21;97251.56;;;12.58;38.01
31595;BME280;18200;48.726;8.892;2023-03-04T12:25:49;97241.47;;;12.35;38.18
31595;BME280;18200;48.726;8.892;2023-03-04T12:43:26;97223.03;;;12.18;37.02
31595;BME280;18200;48.726;8.892;2023-03-04T12:52:29;97209.56;;;12.18;37.42
31595;BME280;18200;48.726;8.892;2023-03-04T12:56:42;97208.03;;;13.69;35.49
31595;BME280;18200;48.726;8.892;2023-03-04T13:01:04;97219.50;;;12.33;36.98
31595;BME280;18200;48.726;8.892;2023-03-04T13:05:28;97205.91;;;12.45;36.75
31595;BME280;18200;48.726;8.892;2023-03-04T13:18:30;97197.31;;;11.67;38.15
31595;BME280;18200;48.726;8.892;2023-03-04T13:22:44;97205.53;;;11.24;39.21
31595;BME280;18200;48.726;8.892;2023-03-04T13:26:45;97205.31;;;11.48;39.40
31595;BME280;18200;48.726;8.892;2023-03-04T13:34:55;97199.94;;;11.48;38.91
31595;BME280;18200;48.726;8.892;2023-03-04T13:43:26;97205.25;;;10.82;40.81
31595;BME280;18200;48.726;8.892;2023-03-04T13:47:41;97202.72;;;10.30;40.65
31595;BME280;18200;48.726;8.892;2023-03-04T13:51:43;97210.81;;;11.86;37.74
31595;BME280;18200;48.726;8.892;2023-03-04T13:56:03;97206.44;;;11.62;38.63
31595;BME280;18200;48.726;8.892;2023-03-04T14:00:04;97204.75;;;11.08;39.75
31595;BME280;18200;48.726;8.892;2023-03-04T14:04:16;97198.44;;;11.16;39.09
31595;BME280;18200;48.726;8.892;2023-03-04T14:08:18;97200.81;;;11.52;38.44
31595;BME280;18200;48.726;8.892;2023-03-04T14:12:19;97193.91;;;11.20;39.46
31595;BME280;18200;48.726;8.892;2023-03-04T14:16:21;97204.41;;;11.09;40.05
31595;BME280;18200;48.726;8.892;2023-03-04T14:20:35;97202.47;;;10.35;41.14
31595;BME280;18200;48.726;8.892;2023-03-04T14:24:36;97191.16;;;11.01;40.25
31595;BME280;18200;48.726;8.892;2023-03-04T14:29:17;97185.91;;;12.46;38.07
31595;BME280;18200;48.726;8.892;2023-03-04T14:33:21;97190.25;;;11.43;39.28
31595;BME280;18200;48.726;8.892;2023-03-04T14:37:25;97182.75;;;11.68;38.50
31595;BME280;18200;48.726;8.892;2023-03-04T14:45:27;97164.09;;;11.09;40.91
31595;BME280;18200;48.726;8.892;2023-03-04T14:49:28;97171.25;;;10.74;41.79
31595;BME280;18200;48.726;8.892;2023-03-04T14:53:31;97158.09;;;11.16;40.35
31595;BME280;18200;48.726;8.892;2023-03-04T14:57:33;97166.59;;;11.18;40.23
31595;BME280;18200;48.726;8.892;2023-03-04T15:01:34;97164.34;;;11.20;40.93
31595;BME280;18200;48.726;8.892;2023-03-04T15:05:35;97164.53;;;11.46;40.04
31595;BME280;18200;48.726;8.892;2023-03-04T15:09:36;97169.63;;;11.01;41.13
31595;BME280;18200;48.726;8.892;2023-03-04T15:13:44;97168.53;;;11.52;39.46
31595;BME280;18200;48.726;8.892;2023-03-04T15:17:45;97161.19;;;12.03;39.03
31595;BME280;18200;48.726;8.892;2023-03-04T15:22:05;97165.88;;;11.36;40.41
31595;BME280;18200;48.726;8.892;2023-03-04T15:26:09;97162.69;;;11.00;40.40
31595;BME280;18200;48.726;8.892;2023-03-04T15:30:14;97164.38;;;9.90;43.20
31595;BME280;18200;48.726;8.892;2023-03-04T15:34:17;97169.59;;;11.32;41.25
31595;BME280;18200;48.726;8.892;2023-03-04T15:38:18;97168.59;;;10.89;42.11
31595;BME280;18200;48.726;8.892;2023-03-04T15:42:19;97170.72;;;10.53;42.50
31595;BME280;18200;48.726;8.892;2023-03-04T15:46:20;97160.94;;;10.76;42.11
31595;BME280;18200;48.726;8.892;2023-03-04T15:50:21;97167.63;;;10.23;43.13
31595;BME280;18200;48.726;8.892;2023-03-04T15:54:27;97150.34;;;11.14;41.36
31595;BME280;18200;48.726;8.892;2023-03-04T15:58:28;97147.84;;;11.21;40.62
31595;BME280;18200;48.726;8.892;2023-03-04T16:02:28;97156.66;;;12.26;38.45
31595;BME280;18200;48.726;8.892;2023-03-04T16:06:30;97155.13;;;12.48;37.84
31595;BME280;18200;48.726;8.892;2023-03-04T16:10:32;97155.97;;;12.97;37.76
31595;BME280;18200;48.726;8.892;2023-03-04T16:14:32;97160.91;;;12.69;37.68
31595;BME280;18200;48.726;8.892;2023-03-04T16:18:32;97156.50;;;10.52;42.09
31595;BME280;18200;48.726;8.892;2023-03-04T16:22:33;97152.97;;;11.11;41.09
31595;BME280;18200;48.726;8.892;2023-03-04T16:26:34;97151.75;;;11.93;39.75
31595;BME280;18200;48.726;8.892;2023-03-04T16:30:34;97155.06;;;12.06;38.85
31595;BME280;18200;48.726;8.892;2023-03-04T16:34:35;97157.75;;;11.87;40.29
31595;BME280;18200;48.726;8.892;2023-03-04T16:38:35;97159.88;;;11.43;41.22
31595;BME280;18200;48.726;8.892;2023-03-04T16:42:36;97160.53;;;11.71;40.12
31595;BME280;18200;48.726;8.892;2023-03-04T16:46:36;97149.91;;;12.16;39.46
31595;BME280;18200;48.726;8.892;2023-03-04T16:50:37;97163.03;;;10.82;42.27
31595;BME280;18200;48.726;8.892;2023-03-04T16:54:38;97160.19;;;11.57;40.98
31595;BME280;18200;48.726;8.892;2023-03-04T16:58:39;97160.81;;;12.04;39.56
31595;BME280;18200;48.726;8.892;2023-03-04T17:02:40;97159.66;;;11.67;40.65
31595;BME280;18200;48.726;8.892;2023-03-04T17:06:40;97161.38;;;12.52;39.11
31595;BME280;18200;48.726;8.892;2023-03-04T17:10:40;97166.47;;;12.37;39.17
31595;BME280;18200;48.726;8.892;2023-03-04T17:14:41;97164.72;;;12.68;38.84
31595;BME280;18200;48.726;8.892;2023-03-04T17:18:42;97157.78;;;12.67;38.43
31595;BME280;18200;48.726;8.892;2023-03-04T17:22:43;97172.78;;;13.32;37.25
31595;BME280;18200;48.726;8.892;2023-03-04T17:26:44;97163.88;;;12.64;38.29
31595;BME280;18200;48.726;8.892;2023-03-04T17:30:44;97169.22;;;12.83;38.47
31595;BME280;18200;48.726;8.892;2023-03-04T17:34:45;97168.13;;;13.06;37.37
31595;BME280;18200;48.726;8.892;2023-03-04T17:38:45;97176.38;;;13.69;36.50
31595;BME280;18200;48.726;8.892;2023-03-04T17:42:46;97177.78;;;14.16;35.54
31595;BME280;18200;48.726;8.892;2023-03-04T17:46:47;97181.31;;;13.90;35.67
31595;BME280;18200;48.726;8.892;2023-03-04T17:50:51;97184.50;;;13.43;37.00
31595;BME280;18200;48.726;8.892;2023-03-04T17:54:52;97188.00;;;13.21;37.22
31595;BME280;18200;48.726;8.892;2023-03-04T17:58:52;97188.13;;;13.80;36.29
31595;BME280;18200;48.726;8.892;2023-03-04T18:02:53;97186.00;;;13.41;36.86
31595;BME280;18200;48.726;8.892;2023-03-04T18:06:53;97187.13;;;14.22;35.54
31595;BME280;18200;48.726;8.892;2023-03-04T18:10:53;97189.72;;;13.85;36.28
31595;BME280;18200;48.726;8.892;2023-03-04T18:14:54;97185.75;;;13.75;36.00
31595;BME280;18200;48.726;8.892;2023-03-04T18:18:56;97170.94;;;13.92;36.42
31595;BME280;18200;48.726;8.892;2023-03-04T18:22:59;97170.38;;;14.09;36.26
31595;BME280;18200;48.726;8.892;2023-03-04T18:27:00;97167.78;;;14.20;35.14
31595;BME280;18200;48.726;8.892;2023-03-04T18:31:00;97157.91;;;14.67;34.47
31595;BME280;18200;48.726;8.892;2023-03-04T18:35:01;97154.22;;;14.46;34.37
31595;BME280;18200;48.726;8.892;2023-03-04T18:39:02;97158.94;;;13.89;35.69
31595;BME280;18200;48.726;8.892;2023-03-04T18:43:04;97165.97;;;13.97;35.92
31595;BME280;18200;48.726;8.892;2023-03-04T18:47:05;97165.66;;;14.32;34.88
31595;BME280;18200;48.726;8.892;2023-03-04T18:51:06;97163.63;;;14.59;34.17
31595;BME280;18200;48.726;8.892;2023-03-04T18:55:07;97157.97;;;14.34;35.05
31595;BME280;18200;48.726;8.892;2023-03-04T18:59:24;97138.28;;;14.74;34.02
31595;BME280;18200;48.726;8.892;2023-03-04T19:03:31;97152.88;;;13.99;35.31
31595;BME280;18200;48.726;8.892;2023-03-04T19:07:33;97145.97;;;14.72;34.69
31595;BME280;18200;48.726;8.892;2023-03-04T19:11:34;97136.69;;;14.69;34.58
31595;BME280;18200;48.726;8.892;2023-03-04T19:15:34;97135.09;;;15.09;33.49
31595;BME280;18200;48.726;8.892;2023-03-04T19:19:35;97139.84;;;14.75;34.50
31595;BME280;18200;48.726;8.892;2023-03-04T19:23:35;97137.00;;;15.01;33.25
31595;BME280;18200;48.726;8.892;2023-03-04T19:27:36;97143.06;;;14.91;33.92
31595;BME280;18200;48.726;8.892;2023-03-04T19:31:37;97148.66;;;15.12;33.64
31595;BME280;18200;48.726;8.892;2023-03-04T19:35:40;97142.16;;;15.20;33.35
31595;BME280;18200;48.726;8.892;2023-03-04T19:39:41;97138.75;;;15.30;33.27
31595;BME280;18200;48.726;8.892;2023-03-04T19:43:45;97128.31;;;15.32;33.08
31595;BME280;18200;48.726;8.892;2023-03-04T19:47:45;97127.69;;;14.99;34.20
31595;BME280;18200;48.726;8.892;2023-03-04T19:51:45;97124.97;;;15.46;32.73
31595;BME280;18200;48.726;8.892;2023-03-04T19:55:47;97133.59;;;15.15;33.05
31595;BME280;18200;48.726;8.892;2023-03-04T19:59:48;97123.97;;;15.21;33.66
31595;BME280;18200;48.726;8.892;2023-03-04T20:03:49;97118.84;;;15.60;33.03
31595;BME280;18200;48.726;8.892;2023-03-04T20:07:49;97119.69;;;15.71;32.90
31595;BME280;18200;48.726;8.892;2023-03-04T20:11:50;97127.06;;;15.74;32.77
31595;BME280;18200;48.726;8.892;2023-03-04T20:15:50;97134.34;;;15.63;32.44
31595;BME280;18200;48.726;8.892;2023-03-04T20:19:51;97125.63;;;15.32;33.29
31595;BME280;18200;48.726;8.892;2023-03-04T20:23:51;97124.44;;;15.33;33.27
31595;BME280;18200;48.726;8.892;2023-03-04T20:27:51;97125.88;;;15.13;34.23
31595;BME280;18200;48.726;8.892;2023-03-04T20:31:52;97119.97;;;15.51;33.63
31595;BME280;18200;48.726;8.892;2023-03-04T20:35:52;97118.00;;;15.48;33.18
31595;BME280;18200;48.726;8.892;2023-03-04T20:39:52;97119.19;;;15.54;33.15
31595;BME280;18200;48.726;8.892;2023-03-04T20:43:55;97117.03;;;15.23;34.12
31595;BME280;18200;48.726;8.892;2023-03-04T20:47:56;97128.88;;;14.61;35.19
31595;BME280;18200;48.726;8.892;2023-03-04T20:51:59;97113.69;;;14.90;34.31
31595;BME280;18200;48.726;8.892;2023-03-04T20:56:02;97116.00;;;14.88;33.95
31595;BME280;18200;48.726;8.892;2023-03-04T21:00:04;97111.81;;;14.53;35.07
31595;BME280;18200;48.726;8.892;2023-03-04T21:04:04;97105.72;;;14.63;34.65
31595;BME280;18200;48.726;8.892;2023-03-04T21:08:05;97102.59;;;14.58;34.92
31595;BME280;18200;48.726;8.892;2023-03-04T21:12:06;97096.63;;;14.82;34.17
31595;BME280;18200;48.726;8.892;2023-03-04T21:16:14;97089.09;;;15.05;34.24
31595;BME280;18200;48.726;8.892;2023-03-04T21:20:15;97092.78;;;14.87;34.04
31595;BME280;18200;48.726;8.892;2023-03-04T21:24:19;97087.81;;;14.92;33.77
31595;BME280;18200;48.726;8.892;2023-03-04T21:28:19;97080.97;;;15.05;34.51
31595;BME280;18200;48.726;8.892;2023-03-04T21:32:23;97079.75;;;14.99;34.35
31595;BME280;18200;48.726;8.892;2023-03-04T21:36:24;97084.59;;;15.30;34.16
31595;BME280;18200;48.726;8.892;2023-03-04T21:40:25;97076.97;;;15.43;33.63
31595;BME280;18200;48.726;8.892;2023-03-04T21:44:25;97077.69;;;15.36;33.82
31595;BME280;18200;48.726;8.892;2023-03-04T21:48:27;97074.00;;;15.66;33.43
31595;BME280;18200;48.726;8.892;2023-03-04T21:52:27;97077.38;;;15.48;33.29
31595;BME280;18200;48.726;8.892;2023-03-04T21:56:28;97067.56;;;15.26;33.77
31595;BME280;18200;48.726;8.892;2023-03-04T22:00:28;97072.78;;;14.98;35.03
31595;BME280;18200;48.726;8.892;2023-03-04T22:04:29;97068.47;;;14.43;35.28
31595;BME280;18200;48.726;8.892;2023-03-04T22:08:29;97065.53;;;14.62;35.13
31595;BME280;18200;48.726;8.892;2023-03-04T22:12:29;97066.66;;;15.08;34.40
31595;BME280;18200;48.726;8.892;2023-03-04T22:16:33;97069.44;;;15.15;34.48
31595;BME280;18200;48.726;8.892;2023-03-04T22:20:35;97068.25;;;15.16;34.56
31595;BME280;18200;48.726;8.892;2023-03-04T22:24:36;97064.53;;;14.81;35.05
31595;BME280;18200;48.726;8.892;2023-03-04T22:28:36;97062.50;;;14.67;35.41
31595;BME280;18200;48.726;8.892;2023-03-04T22:32:37;97058.00;;;14.85;35.10
31595;BME280;18200;48.726;8.892;2023-03-04T22:36:39;97059.50;;;14.75;35.43
31595;BME280;18200;48.726;8.892;2023-03-04T22:40:40;97043.50;;;15.14;34.24
31595;BME280;18200;48.726;8.892;2023-03-04T22:44:40;97041.03;;;14.88;34.25
31595;BME280;18200;48.726;8.892;2023-03-04T22:48:41;97041.72;;;14.78;34.63
31595;BME280;18200;48.726;8.892;2023-03-04T22:52:42;97035.00;;;14.58;35.21